Time;durP1;ratioP1;P1;durP2;ratioP2;P2;SDS_P1;SDS_P2;PMS_P1;PMS_P2;Temp;Humidity;BMP_temperature;BMP_pressure;BME280_temperature;BME280_humidity;BME280_pressure;Samples;Min_cycle;Max_cycle;Signal;HPM_P1;HPM_P2
2022/04/27 00:01:25;;;;;;;13.17;7.80;;;;;;;;;;5038774;28;20614;-73
2022/04/27 00:03:54;;;;;;;12.17;8.70;;;;;;;;;;5036105;28;20710;-73
2022/04/27 00:06:22;;;;;;;11.57;7.70;;;;;;;;;;5036351;28;20207;-73
2022/04/27 00:08:51;;;;;;;12.17;8.13;;;;;;;;;;5033533;28;20705;-72
2022/04/27 00:11:19;;;;;;;10.87;8.20;;;;;;;;;;5036657;28;20203;-72
2022/04/27 00:13:47;;;;;;;10.70;7.43;;;;;;;;;;5035925;28;20211;-73
2022/04/27 00:16:16;;;;;;;11.27;7.63;;;;;;;;;;5036661;28;20262;-73
2022/04/27 00:18:46;;;;;;;9.77;8.20;;;;;;;;;;5035521;28;20236;-73
2022/04/27 00:21:14;;;;;;;12.83;8.50;;;;;;;;;;5036439;28;20200;-74
2022/04/27 00:23:43;;;;;;;9.80;8.43;;;;;;;;;;5035520;28;20281;-73
2022/04/27 00:26:11;;;;;;;10.87;8.73;;;;;;;;;;5035973;28;20203;-73
2022/04/27 00:28:39;;;;;;;12.67;8.80;;;;;;;;;;5035603;28;20224;-74
2022/04/27 00:31:08;;;;;;;10.60;8.47;;;;;;;;;;5033974;28;20254;-73
2022/04/27 00:33:36;;;;;;;11.00;8.13;;;;;;;;;;5033372;28;20663;-73
2022/04/27 00:36:06;;;;;;;12.70;8.53;;;;;;;;;;5035357;28;20718;-73
2022/04/27 00:38:35;;;;;;;11.27;8.97;;;;;;;;;;5035245;28;20277;-73
2022/04/27 00:41:03;;;;;;;9.03;7.80;;;;;;;;;;5035549;28;20254;-72
2022/04/27 00:43:35;;;;;;;11.03;8.40;;;;;;;;;;5035147;28;20223;-74
2022/04/27 00:46:04;;;;;;;14.17;8.30;;;;;;;;;;5034918;28;20204;-73
2022/04/27 00:48:32;;;;;;;22.03;9.47;;;;;;;;;;5034923;28;20259;-73
2022/04/27 00:51:01;;;;;;;22.07;9.57;;;;;;;;;;5035559;28;20208;-73
2022/04/27 00:53:31;;;;;;;14.37;8.87;;;;;;;;;;5035579;28;20257;-74
2022/04/27 00:55:59;;;;;;;13.60;8.43;;;;;;;;;;5035053;28;20611;-73
2022/04/27 00:58:28;;;;;;;12.10;8.30;;;;;;;;;;5035415;28;20227;-73
2022/04/27 01:01:17;;;;;;;12.50;8.20;;;;;;;;;;5015511;28;20236;-72
2022/04/27 01:03:45;;;;;;;15.83;9.10;;;;;;;;;;5033940;28;20297;-74
2022/04/27 01:06:15;;;;;;;26.33;9.00;;;;;;;;;;5035325;28;20258;-73
2022/04/27 01:08:45;;;;;;;27.80;9.50;;;;;;;;;;5032350;28;20613;-74
2022/04/27 01:11:14;;;;;;;21.13;8.97;;;;;;;;;;5035164;28;20211;-73
2022/04/27 01:13:43;;;;;;;13.93;8.90;;;;;;;;;;5035471;28;20733;-73
2022/04/27 01:16:11;;;;;;;11.53;8.43;;;;;;;;;;5035397;28;20203;-74
2022/04/27 01:18:39;;;;;;;12.97;9.20;;;;;;;;;;5033872;28;20702;-73
2022/04/27 01:21:09;;;;;;;20.23;9.60;;;;;;;;;;5034317;28;20263;-74
2022/04/27 01:23:39;;;;;;;10.17;8.40;;;;;;;;;;5027753;28;20270;-73
2022/04/27 01:26:07;;;;;;;11.27;8.53;;;;;;;;;;5015012;28;20819;-73
2022/04/27 01:28:37;;;;;;;13.13;8.43;;;;;;;;;;5017112;28;20860;-73
2022/04/27 01:31:06;;;;;;;13.00;8.83;;;;;;;;;;5034855;28;20884;-74
2022/04/27 01:33:35;;;;;;;15.93;8.97;;;;;;;;;;5033990;28;20611;-73
2022/04/27 01:36:05;;;;;;;19.70;9.10;;;;;;;;;;5033916;28;20656;-73
2022/04/27 01:38:36;;;;;;;15.03;9.27;;;;;;;;;;5032776;28;20278;-74
2022/04/27 01:41:05;;;;;;;15.73;8.97;;;;;;;;;;5033206;28;20207;-73
2022/04/27 01:43:34;;;;;;;12.47;9.30;;;;;;;;;;5034450;28;20230;-72
2022/04/27 01:46:02;;;;;;;10.93;8.90;;;;;;;;;;5035274;28;20207;-74
2022/04/27 01:48:31;;;;;;;15.47;9.13;;;;;;;;;;5032658;28;20228;-73
2022/04/27 01:50:59;;;;;;;16.20;9.03;;;;;;;;;;5028764;28;20250;-73
2022/04/27 01:56:15;;;;;;;10.60;8.90;;;;;;;;;;5034280;28;20207;-73
2022/04/27 01:58:45;;;;;;;10.13;8.83;;;;;;;;;;5034312;28;20232;-73
2022/04/27 02:01:14;;;;;;;15.17;9.37;;;;;;;;;;5034100;28;20208;-73
2022/04/27 02:03:42;;;;;;;13.83;9.67;;;;;;;;;;5032066;28;20250;-74
2022/04/27 02:06:11;;;;;;;13.10;9.47;;;;;;;;;;5034146;28;20640;-74
2022/04/27 02:08:39;;;;;;;14.90;8.90;;;;;;;;;;5032696;28;20757;-73
2022/04/27 02:11:11;;;;;;;13.73;9.13;;;;;;;;;;5032815;28;20264;-73
2022/04/27 02:13:40;;;;;;;15.67;9.20;;;;;;;;;;5033974;28;20657;-73
2022/04/27 02:16:09;;;;;;;11.50;9.47;;;;;;;;;;5033298;28;20617;-74
2022/04/27 02:18:37;;;;;;;11.27;9.37;;;;;;;;;;5032070;28;20249;-73
2022/04/27 02:21:06;;;;;;;13.73;9.73;;;;;;;;;;5033382;28;20281;-73
2022/04/27 02:23:34;;;;;;;12.53;9.57;;;;;;;;;;5033351;28;20207;-73
2022/04/27 02:26:02;;;;;;;10.83;9.13;;;;;;;;;;5034269;28;20211;-73
2022/04/27 02:28:31;;;;;;;11.30;8.60;;;;;;;;;;5032405;28;20370;-74
2022/04/27 02:31:01;;;;;;;10.53;9.20;;;;;;;;;;5033131;28;20196;-73
2022/04/27 02:33:30;;;;;;;10.70;9.13;;;;;;;;;;5014057;28;20690;-73
2022/04/27 02:35:59;;;;;;;13.63;9.80;;;;;;;;;;5013567;28;20668;-73
2022/04/27 02:38:28;;;;;;;12.70;10.00;;;;;;;;;;5021325;28;20223;-74
2022/04/27 02:40:56;;;;;;;10.77;9.30;;;;;;;;;;5028868;28;20617;-74
2022/04/27 02:43:27;;;;;;;16.13;10.93;;;;;;;;;;5032115;28;20207;-73
2022/04/27 02:45:55;;;;;;;11.27;9.50;;;;;;;;;;5033326;28;20318;-74
2022/04/27 02:48:25;;;;;;;12.47;10.07;;;;;;;;;;5033130;28;20697;-73
2022/04/27 02:53:39;;;;;;;12.03;8.80;;;;;;;;;;5033248;28;20218;-73
2022/04/27 02:56:08;;;;;;;13.50;9.17;;;;;;;;;;5033498;28;20256;-74
2022/04/27 02:58:36;;;;;;;11.97;8.83;;;;;;;;;;5031510;28;20308;-74
2022/04/27 03:01:05;;;;;;;12.70;9.83;;;;;;;;;;5032491;28;20207;-73
2022/04/27 03:03:34;;;;;;;11.50;9.60;;;;;;;;;;5033107;28;20274;-73
2022/04/27 03:06:03;;;;;;;14.03;9.87;;;;;;;;;;5032598;28;20227;-74
2022/04/27 03:08:31;;;;;;;12.00;9.40;;;;;;;;;;5032894;28;20230;-74
2022/04/27 03:11:00;;;;;;;13.67;9.90;;;;;;;;;;5031950;28;20609;-73
2022/04/27 03:13:29;;;;;;;13.13;9.57;;;;;;;;;;5033153;28;20266;-73
2022/04/27 03:15:57;;;;;;;11.23;9.40;;;;;;;;;;5032544;28;20203;-73
2022/04/27 03:18:26;;;;;;;14.40;10.40;;;;;;;;;;5031493;28;20914;-74
2022/04/27 03:20:56;;;;;;;12.87;10.13;;;;;;;;;;5032605;28;20214;-73
2022/04/27 03:23:24;;;;;;;13.90;11.10;;;;;;;;;;5031557;28;20207;-72
2022/04/27 03:25:53;;;;;;;15.97;10.50;;;;;;;;;;5032575;28;20234;-73
2022/04/27 03:28:21;;;;;;;15.53;10.90;;;;;;;;;;5032404;28;20292;-74
2022/04/27 03:30:50;;;;;;;12.53;10.77;;;;;;;;;;5032510;28;20233;-74
2022/04/27 03:33:19;;;;;;;12.70;9.47;;;;;;;;;;5031686;28;20674;-74
2022/04/27 03:35:48;;;;;;;11.47;10.27;;;;;;;;;;5033090;28;20206;-73
2022/04/27 03:38:18;;;;;;;13.53;10.03;;;;;;;;;;5031825;28;20234;-74
2022/04/27 03:40:47;;;;;;;13.13;10.50;;;;;;;;;;5033013;28;20211;-74
2022/04/27 03:43:15;;;;;;;13.37;10.70;;;;;;;;;;5032399;28;20543;-74
2022/04/27 03:45:44;;;;;;;13.77;11.27;;;;;;;;;;5033348;28;20621;-73
2022/04/27 03:48:12;;;;;;;14.90;11.23;;;;;;;;;;5032417;28;20264;-73
2022/04/27 03:50:41;;;;;;;13.50;10.30;;;;;;;;;;5030189;28;20210;-74
2022/04/27 03:53:10;;;;;;;12.10;10.50;;;;;;;;;;5032406;28;20218;-73
2022/04/27 03:55:39;;;;;;;14.53;10.67;;;;;;;;;;5032092;28;20209;-73
2022/04/27 03:58:08;;;;;;;11.17;9.73;;;;;;;;;;5027725;28;20219;-73
2022/04/27 04:00:36;;;;;;;13.60;10.57;;;;;;;;;;5012757;28;20206;-73
2022/04/27 04:03:05;;;;;;;17.47;11.33;;;;;;;;;;5020185;28;20211;-73
2022/04/27 04:05:40;;;;;;;14.23;11.23;;;;;;;;;;5023999;28;20221;-73
2022/04/27 04:08:09;;;;;;;14.47;10.33;;;;;;;;;;5031923;28;20233;-74
2022/04/27 04:10:37;;;;;;;13.10;9.80;;;;;;;;;;5033766;28;20206;-73
2022/04/27 04:13:07;;;;;;;12.10;9.73;;;;;;;;;;5034927;28;20605;-74
2022/04/27 04:15:37;;;;;;;12.93;10.27;;;;;;;;;;5036287;28;20207;-74
2022/04/27 04:18:06;;;;;;;13.53;10.27;;;;;;;;;;5034931;28;20234;-74
2022/04/27 04:20:34;;;;;;;14.27;10.50;;;;;;;;;;5035040;28;20562;-74
2022/04/27 04:23:03;;;;;;;12.60;10.50;;;;;;;;;;5034948;28;20214;-73
2022/04/27 04:28:31;;;;;;;13.80;10.80;;;;;;;;;;5033960;28;21413;-74
2022/04/27 04:31:00;;;;;;;14.57;10.90;;;;;;;;;;5032680;28;20212;-73
2022/04/27 04:33:28;;;;;;;14.03;11.30;;;;;;;;;;5020872;28;20277;-73
2022/04/27 04:35:57;;;;;;;13.83;11.30;;;;;;;;;;5030762;28;20198;-73
2022/04/27 04:38:26;;;;;;;16.30;11.70;;;;;;;;;;5034399;28;20869;-74
2022/04/27 04:40:54;;;;;;;14.40;11.60;;;;;;;;;;5031532;28;20205;-73
2022/04/27 04:43:24;;;;;;;14.13;11.70;;;;;;;;;;5034379;28;20205;-74
2022/04/27 04:45:52;;;;;;;20.37;16.77;;;;;;;;;;5034278;28;20277;-74
2022/04/27 04:48:22;;;;;;;17.07;15.27;;;;;;;;;;5035100;28;20700;-73
2022/04/27 04:50:50;;;;;;;18.60;14.83;;;;;;;;;;5037449;28;20204;-74
2022/04/27 04:53:20;;;;;;;17.97;12.80;;;;;;;;;;5044499;28;20206;-74
2022/04/27 04:55:49;;;;;;;17.93;12.70;;;;;;;;;;5033025;28;20242;-73
2022/04/27 04:58:17;;;;;;;15.80;12.40;;;;;;;;;;5034500;28;20227;-73
2022/04/27 05:00:48;;;;;;;18.70;13.10;;;;;;;;;;5031564;28;20238;-73
2022/04/27 05:03:16;;;;;;;18.63;11.90;;;;;;;;;;5026424;28;20262;-73
2022/04/27 05:05:45;;;;;;;17.30;12.87;;;;;;;;;;5035150;28;20227;-72
2022/04/27 05:08:14;;;;;;;20.40;14.00;;;;;;;;;;5035148;28;20219;-74
2022/04/27 05:10:42;;;;;;;19.73;13.70;;;;;;;;;;5033327;28;20723;-73
2022/04/27 05:13:11;;;;;;;18.93;14.47;;;;;;;;;;5024200;28;20207;-75
2022/04/27 05:15:39;;;;;;;18.57;14.97;;;;;;;;;;5034487;28;20235;-74
2022/04/27 05:18:09;;;;;;;17.27;13.20;;;;;;;;;;5032794;28;20636;-74
2022/04/27 05:20:38;;;;;;;17.30;14.17;;;;;;;;;;5027628;28;20206;-73
2022/04/27 05:23:07;;;;;;;19.57;14.37;;;;;;;;;;5033525;28;20577;-72
2022/04/27 05:25:35;;;;;;;15.83;13.83;;;;;;;;;;5032890;28;20223;-74
2022/04/27 05:28:04;;;;;;;19.87;12.60;;;;;;;;;;5030237;28;20278;-73
2022/04/27 05:33:23;;;;;;;21.37;13.17;;;;;;;;;;5033374;28;20211;-74
2022/04/27 05:35:51;;;;;;;17.53;13.10;;;;;;;;;;5034765;28;20200;-73
2022/04/27 05:38:20;;;;;;;20.57;13.10;;;;;;;;;;5031895;28;20727;-73
2022/04/27 05:40:48;;;;;;;20.33;13.57;;;;;;;;;;5032823;28;20215;-73
2022/04/27 05:43:17;;;;;;;21.93;13.53;;;;;;;;;;5033720;28;20724;-74
2022/04/27 05:45:46;;;;;;;16.23;13.20;;;;;;;;;;5033458;28;20223;-74
2022/04/27 05:48:15;;;;;;;17.33;12.50;;;;;;;;;;5034049;28;20317;-73
2022/04/27 05:50:45;;;;;;;16.57;12.90;;;;;;;;;;5034588;28;20270;-73
2022/04/27 05:53:16;;;;;;;18.33;12.57;;;;;;;;;;5033674;28;20199;-73
2022/04/27 05:55:45;;;;;;;19.10;13.27;;;;;;;;;;5033430;28;20203;-73
2022/04/27 05:58:13;;;;;;;19.67;13.07;;;;;;;;;;5028320;28;20243;-73
2022/04/27 06:00:42;;;;;;;18.40;12.80;;;;;;;;;;5034176;28;20211;-73
2022/04/27 06:03:10;;;;;;;16.60;12.93;;;;;;;;;;5034001;28;20527;-73
2022/04/27 06:05:39;;;;;;;17.87;11.90;;;;;;;;;;5033541;28;20224;-73
2022/04/27 06:08:10;;;;;;;16.33;12.27;;;;;;;;;;5032478;28;20232;-74
2022/04/27 06:10:38;;;;;;;15.07;12.90;;;;;;;;;;5033401;28;20211;-73
2022/04/27 06:13:07;;;;;;;18.13;12.60;;;;;;;;;;5032815;28;20211;-73
2022/04/27 06:15:35;;;;;;;13.83;11.80;;;;;;;;;;5033680;28;20208;-73
2022/04/27 06:18:03;;;;;;;18.67;13.57;;;;;;;;;;5033927;28;20294;-74
2022/04/27 06:20:32;;;;;;;15.27;12.50;;;;;;;;;;5034022;28;20535;-74
2022/04/27 06:23:00;;;;;;;17.37;13.00;;;;;;;;;;5033279;28;20207;-74
2022/04/27 06:25:32;;;;;;;16.40;12.47;;;;;;;;;;5033705;28;20573;-74
2022/04/27 06:28:00;;;;;;;16.07;12.80;;;;;;;;;;5033764;28;20424;-74
2022/04/27 06:30:29;;;;;;;16.77;12.57;;;;;;;;;;5033395;28;20266;-74
2022/04/27 06:32:57;;;;;;;16.10;12.23;;;;;;;;;;5033701;28;20735;-73
2022/04/27 06:35:26;;;;;;;16.20;12.27;;;;;;;;;;5032548;28;20196;-74
2022/04/27 06:37:54;;;;;;;16.43;12.00;;;;;;;;;;5033579;28;20694;-74
2022/04/27 06:40:24;;;;;;;14.73;12.67;;;;;;;;;;5030593;28;20209;-74
2022/04/27 06:42:56;;;;;;;16.17;12.53;;;;;;;;;;5033243;28;20208;-74
2022/04/27 06:45:27;;;;;;;15.63;12.90;;;;;;;;;;5033452;28;20199;-74
2022/04/27 06:47:56;;;;;;;16.00;11.70;;;;;;;;;;5032268;28;20224;-74
2022/04/27 06:50:25;;;;;;;14.27;12.57;;;;;;;;;;5030624;28;20226;-73
2022/04/27 06:52:55;;;;;;;18.80;12.13;;;;;;;;;;5033276;28;20586;-74
2022/04/27 06:55:23;;;;;;;16.50;11.80;;;;;;;;;;5032822;28;20203;-73
2022/04/27 06:57:53;;;;;;;17.73;11.43;;;;;;;;;;5033104;28;20219;-74
2022/04/27 07:00:22;;;;;;;14.93;11.33;;;;;;;;;;5032528;28;20200;-73
2022/04/27 07:02:50;;;;;;;13.53;11.63;;;;;;;;;;5032975;28;20200;-74
2022/04/27 07:05:20;;;;;;;14.33;11.00;;;;;;;;;;5033077;28;20211;-74
2022/04/27 07:07:49;;;;;;;13.97;11.77;;;;;;;;;;5033065;28;20235;-73
2022/04/27 07:10:19;;;;;;;12.50;10.83;;;;;;;;;;5033630;28;20204;-74
2022/04/27 07:12:48;;;;;;;14.90;11.33;;;;;;;;;;5028653;28;20651;-74
2022/04/27 07:15:18;;;;;;;12.57;10.57;;;;;;;;;;5033248;28;20227;-74
2022/04/27 07:17:46;;;;;;;15.37;11.00;;;;;;;;;;5032785;28;20231;-74
2022/04/27 07:20:15;;;;;;;17.13;11.90;;;;;;;;;;5029118;28;20583;-74
2022/04/27 07:22:44;;;;;;;19.17;11.33;;;;;;;;;;5032562;28;20342;-73
2022/04/27 07:25:14;;;;;;;13.87;10.93;;;;;;;;;;5033310;28;20207;-73
2022/04/27 07:27:42;;;;;;;12.93;11.20;;;;;;;;;;5031282;28;20239;-73
2022/04/27 07:30:11;;;;;;;13.40;10.87;;;;;;;;;;5032681;28;20215;-73
2022/04/27 07:32:41;;;;;;;15.17;10.63;;;;;;;;;;5031166;28;20215;-74
2022/04/27 07:35:10;;;;;;;13.43;10.30;;;;;;;;;;5031488;28;20663;-73
2022/04/27 07:37:39;;;;;;;13.27;11.00;;;;;;;;;;5032858;28;20691;-73
2022/04/27 07:40:09;;;;;;;14.97;9.80;;;;;;;;;;5033089;28;20203;-73
2022/04/27 07:42:37;;;;;;;12.97;8.60;;;;;;;;;;5035982;28;20253;-73
2022/04/27 07:45:07;;;;;;;10.13;8.97;;;;;;;;;;5033626;28;20211;-73
2022/04/27 07:47:44;;;;;;;12.03;9.33;;;;;;;;;;5036252;28;20711;-73
2022/04/27 07:50:14;;;;;;;10.00;8.70;;;;;;;;;;5036455;28;20557;-73
2022/04/27 07:52:42;;;;;;;10.43;8.20;;;;;;;;;;5027915;28;20258;-72
2022/04/27 07:55:11;;;;;;;10.93;8.20;;;;;;;;;;5036547;28;20267;-74
2022/04/27 07:57:40;;;;;;;11.10;7.60;;;;;;;;;;5035980;28;20215;-74
2022/04/27 08:00:09;;;;;;;10.93;7.77;;;;;;;;;;5036292;28;20204;-74
2022/04/27 08:02:37;;;;;;;11.43;7.43;;;;;;;;;;5035694;28;20215;-73
2022/04/27 08:05:09;;;;;;;10.63;6.77;;;;;;;;;;5036361;28;20548;-73
2022/04/27 08:07:38;;;;;;;6.10;5.27;;;;;;;;;;5036086;28;20257;-72
2022/04/27 08:10:07;;;;;;;8.17;4.87;;;;;;;;;;5036155;28;20538;-73
2022/04/27 08:12:36;;;;;;;6.13;4.13;;;;;;;;;;5035322;28;20204;-74
2022/04/27 08:15:04;;;;;;;6.03;4.53;;;;;;;;;;5036410;28;20258;-72
2022/04/27 08:17:33;;;;;;;7.57;5.20;;;;;;;;;;5035763;28;20232;-74
2022/04/27 08:22:49;;;;;;;11.67;6.47;;;;;;;;;;5016145;28;20216;-72
2022/04/27 08:25:17;;;;;;;7.60;5.80;;;;;;;;;;5025528;28;20654;-73
2022/04/27 08:27:45;;;;;;;6.77;5.73;;;;;;;;;;5035811;28;20235;-75
2022/04/27 08:30:14;;;;;;;11.37;6.27;;;;;;;;;;5035108;28;20199;-73
2022/04/27 08:32:43;;;;;;;7.67;5.00;;;;;;;;;;5035747;28;20281;-74
2022/04/27 08:35:11;;;;;;;9.30;4.70;;;;;;;;;;5028697;28;20226;-72
2022/04/27 08:37:40;;;;;;;8.63;5.03;;;;;;;;;;5035654;28;20235;-74
2022/04/27 08:40:10;;;;;;;6.90;5.00;;;;;;;;;;5034882;28;20206;-73
2022/04/27 08:42:38;;;;;;;5.17;4.67;;;;;;;;;;5035218;28;20257;-72
2022/04/27 08:45:07;;;;;;;10.20;4.87;;;;;;;;;;5034992;28;20204;-73
2022/04/27 08:47:36;;;;;;;5.70;4.20;;;;;;;;;;5034814;28;20224;-72
2022/04/27 08:50:11;;;;;;;6.83;4.30;;;;;;;;;;5035068;28;20203;-74
2022/04/27 08:52:41;;;;;;;6.10;4.00;;;;;;;;;;5035503;28;20188;-74
2022/04/27 08:55:11;;;;;;;5.03;3.63;;;;;;;;;;5035231;28;20204;-73
2022/04/27 08:57:40;;;;;;;5.30;4.43;;;;;;;;;;5040692;28;20219;-74
2022/04/27 09:00:09;;;;;;;7.33;4.43;;;;;;;;;;5053862;28;20693;-74
2022/04/27 09:02:38;;;;;;;6.60;4.63;;;;;;;;;;5035399;28;20196;-73
2022/04/27 09:05:07;;;;;;;5.43;4.40;;;;;;;;;;5035442;28;20245;-73
2022/04/27 09:07:39;;;;;;;5.23;4.00;;;;;;;;;;5034763;28;20215;-73
2022/04/27 09:10:08;;;;;;;6.97;4.50;;;;;;;;;;5024424;28;20254;-73
2022/04/27 09:12:44;;;;;;;7.57;4.60;;;;;;;;;;5034776;28;20613;-73
2022/04/27 09:15:13;;;;;;;8.67;5.10;;;;;;;;;;5034496;28;20282;-74
2022/04/27 09:23:22;;;;;;;9.03;4.77;;;;;;;;;;5034730;28;20357;-73
2022/04/27 09:25:51;;;;;;;6.40;4.80;;;;;;;;;;5035056;28;20207;-73
2022/04/27 09:28:36;;;;;;;6.70;4.78;;;;;;;;;;5034451;28;20231;-73
2022/04/27 09:31:05;;;;;;;8.10;5.30;;;;;;;;;;5034116;28;20208;-74
2022/04/27 09:33:35;;;;;;;5.77;4.87;;;;;;;;;;5034899;28;20204;-74
2022/04/27 09:36:05;;;;;;;8.23;5.13;;;;;;;;;;5035155;28;20219;-74
2022/04/27 09:38:41;;;;;;;7.18;5.10;;;;;;;;;;5034842;28;20579;-74
2022/04/27 09:41:10;;;;;;;6.72;5.13;;;;;;;;;;5033804;28;20203;-74
2022/04/27 09:43:43;;;;;;;8.77;5.00;;;;;;;;;;5033849;28;20200;-74
2022/04/27 09:46:22;;;;;;;6.70;5.50;;;;;;;;;;5034441;28;20204;-74
2022/04/27 09:49:09;;;;;;;6.03;4.97;;;;;;;;;;5034499;28;20231;-74
2022/04/27 09:51:57;;;;;;;5.75;4.97;;;;;;;;;;5033275;28;20683;-74
2022/04/27 09:54:28;;;;;;;8.15;4.88;;;;;;;;;;5027289;28;20223;-73
2022/04/27 09:56:57;;;;;;;9.18;5.28;;;;;;;;;;5034300;28;20220;-73
2022/04/27 09:59:30;;;;;;;9.88;5.82;;;;;;;;;;5033645;28;20602;-72
2022/04/27 10:01:59;;;;;;;10.27;5.60;;;;;;;;;;5033684;28;20651;-74
2022/04/27 10:04:29;;;;;;;7.47;6.05;;;;;;;;;;5034264;28;20311;-74
2022/04/27 10:07:01;;;;;;;8.75;5.65;;;;;;;;;;5033730;28;20228;-74
2022/04/27 10:09:30;;;;;;;9.00;5.88;;;;;;;;;;5032818;28;20220;-74
2022/04/27 10:12:13;;;;;;;6.97;5.80;;;;;;;;;;5027473;28;20565;-73
2022/04/27 10:14:43;;;;;;;7.20;5.50;;;;;;;;;;5033908;28;20199;-73
2022/04/27 10:17:12;;;;;;;8.30;5.50;;;;;;;;;;5033434;28;20278;-73
2022/04/27 10:19:45;;;;;;;7.22;5.53;;;;;;;;;;5033112;28;20204;-74
2022/04/27 10:22:25;;;;;;;6.30;5.50;;;;;;;;;;5033375;28;20203;-73
2022/04/27 10:24:55;;;;;;;6.03;5.32;;;;;;;;;;5042910;28;20213;-74
2022/04/27 10:27:26;;;;;;;7.18;5.90;;;;;;;;;;5054379;28;20226;-73
2022/04/27 10:29:59;;;;;;;7.95;6.32;;;;;;;;;;5047366;28;20765;-72
2022/04/27 10:32:38;;;;;;;7.18;5.88;;;;;;;;;;5033819;28;20193;-74
2022/04/27 10:35:17;;;;;;;8.80;6.03;;;;;;;;;;5033644;28;20214;-73
2022/04/27 10:37:47;;;;;;;10.25;6.50;;;;;;;;;;5033728;28;20702;-74
2022/04/27 10:40:30;;;;;;;8.85;5.80;;;;;;;;;;5032677;28;20250;-73
2022/04/27 10:43:13;;;;;;;7.20;6.07;;;;;;;;;;5031544;28;20257;-72
2022/04/27 10:45:44;;;;;;;7.35;6.28;;;;;;;;;;5033507;28;20211;-73
2022/04/27 10:48:16;;;;;;;9.95;6.20;;;;;;;;;;5032321;28;20277;-74
2022/04/27 10:50:55;;;;;;;8.45;6.00;;;;;;;;;;5032771;28;20212;-73
2022/04/27 10:53:24;;;;;;;8.18;6.15;;;;;;;;;;5033321;28;20215;-74
2022/04/27 10:55:56;;;;;;;7.55;6.38;;;;;;;;;;5030579;28;20208;-72
2022/04/27 10:58:30;;;;;;;9.05;5.93;;;;;;;;;;5031868;28;20631;-73
2022/04/27 11:01:26;;;;;;;7.93;6.32;;;;;;;;;;5032355;28;20206;-73
2022/04/27 11:03:57;;;;;;;8.23;6.15;;;;;;;;;;5017684;28;20249;-73
2022/04/27 11:06:26;;;;;;;8.68;5.85;;;;;;;;;;5030963;28;20212;-73
2022/04/27 11:09:01;;;;;;;8.45;6.32;;;;;;;;;;5033086;28;20559;-73
2022/04/27 11:11:31;;;;;;;7.57;6.55;;;;;;;;;;5033186;28;20191;-73
2022/04/27 11:14:00;;;;;;;7.38;6.60;;;;;;;;;;5028320;28;20207;-74
2022/04/27 11:16:28;;;;;;;7.15;6.32;;;;;;;;;;5028911;28;20208;-74
2022/04/27 11:18:59;;;;;;;7.70;6.30;;;;;;;;;;5029415;28;20302;-73
2022/04/27 11:21:29;;;;;;;9.13;6.15;;;;;;;;;;5030619;28;20207;-73
2022/04/27 11:23:58;;;;;;;7.38;5.88;;;;;;;;;;5030118;28;20211;-73
2022/04/27 11:26:26;;;;;;;7.10;5.95;;;;;;;;;;5029729;28;20207;-73
2022/04/27 11:28:55;;;;;;;6.78;6.05;;;;;;;;;;5030324;28;20219;-73
2022/04/27 11:31:24;;;;;;;9.38;6.53;;;;;;;;;;5015786;28;20203;-74
2022/04/27 11:33:52;;;;;;;6.60;5.90;;;;;;;;;;5010466;28;20204;-73
2022/04/27 11:36:26;;;;;;;10.18;6.30;;;;;;;;;;5029169;28;20226;-73
2022/04/27 11:38:54;;;;;;;7.45;6.13;;;;;;;;;;5010724;28;20220;-72
2022/04/27 11:41:24;;;;;;;8.95;6.45;;;;;;;;;;5029555;28;20211;-73
2022/04/27 11:43:54;;;;;;;11.25;6.18;;;;;;;;;;5030532;28;20223;-73
2022/04/27 11:46:23;;;;;;;7.57;6.30;;;;;;;;;;5032875;28;20208;-73
2022/04/27 11:48:52;;;;;;;6.32;5.70;;;;;;;;;;5030205;28;20632;-72
2022/04/27 11:51:21;;;;;;;7.20;6.40;;;;;;;;;;5030541;28;20195;-73
2022/04/27 11:53:51;;;;;;;7.82;6.50;;;;;;;;;;5030405;28;20659;-73
2022/04/27 11:56:20;;;;;;;7.05;6.38;;;;;;;;;;5030375;28;20204;-73
2022/04/27 11:58:49;;;;;;;6.78;6.13;;;;;;;;;;5029488;28;20273;-73
2022/04/27 12:01:21;;;;;;;7.10;6.40;;;;;;;;;;5022827;28;20219;-72
2022/04/27 12:03:50;;;;;;;7.97;6.18;;;;;;;;;;5028589;28;20200;-73
2022/04/27 12:06:19;;;;;;;8.23;6.40;;;;;;;;;;5027690;28;20626;-72
2022/04/27 12:08:47;;;;;;;7.18;6.15;;;;;;;;;;5027171;28;20236;-72
2022/04/27 12:11:23;;;;;;;7.40;6.78;;;;;;;;;;5029307;28;20207;-73
2022/04/27 12:13:51;;;;;;;6.95;6.25;;;;;;;;;;4687141;28;10000297;-74
2022/04/27 12:16:23;;;;;;;8.45;6.70;;;;;;;;;;5024366;28;20200;-72
2022/04/27 12:18:52;;;;;;;10.25;7.20;;;;;;;;;;5027776;28;20289;-73
2022/04/27 12:21:24;;;;;;;8.68;6.85;;;;;;;;;;5026448;28;20208;-73
2022/04/27 12:23:56;;;;;;;8.13;7.07;;;;;;;;;;5028350;28;20203;-73
2022/04/27 12:26:26;;;;;;;9.98;6.75;;;;;;;;;;5029686;28;20200;-73
2022/04/27 12:28:54;;;;;;;8.95;7.82;;;;;;;;;;5028880;28;20212;-73
2022/04/27 12:31:27;;;;;;;8.10;7.40;;;;;;;;;;5022856;28;20212;-73
2022/04/27 12:33:59;;;;;;;8.60;7.80;;;;;;;;;;5035197;28;20214;-74
2022/04/27 12:39:20;;;;;;;9.20;7.90;;;;;;;;;;5030210;28;20196;-72
2022/04/27 12:41:52;;;;;;;8.30;7.50;;;;;;;;;;5032518;28;20199;-72
2022/04/27 12:44:24;;;;;;;8.52;7.63;;;;;;;;;;5031512;28;20242;-73
2022/04/27 12:46:57;;;;;;;9.45;7.03;;;;;;;;;;5033401;28;20222;-73
2022/04/27 12:49:26;;;;;;;8.70;7.35;;;;;;;;;;5032509;28;20236;-74
2022/04/27 12:51:55;;;;;;;8.90;8.02;;;;;;;;;;5028947;28;20870;-72
2022/04/27 12:54:33;;;;;;;9.00;8.10;;;;;;;;;;5030570;28;20200;-73
2022/04/27 12:57:04;;;;;;;8.60;7.70;;;;;;;;;;5029875;28;20224;-73
2022/04/27 12:59:32;;;;;;;8.73;7.93;;;;;;;;;;5032454;28;20207;-73
2022/04/27 13:02:04;;;;;;;9.07;7.28;;;;;;;;;;5032053;28;20648;-73
2022/04/27 13:04:33;;;;;;;8.68;7.25;;;;;;;;;;5031806;28;20208;-73
2022/04/27 13:07:02;;;;;;;9.13;7.22;;;;;;;;;;5035288;28;20236;-73
2022/04/27 13:12:18;;;;;;;10.02;8.20;;;;;;;;;;5032305;28;20679;-73
2022/04/27 13:14:46;;;;;;;8.00;7.22;;;;;;;;;;5032434;28;20200;-73
2022/04/27 13:17:15;;;;;;;8.32;7.47;;;;;;;;;;5027865;28;20224;-72
2022/04/27 13:19:43;;;;;;;9.95;7.35;;;;;;;;;;5032076;28;20257;-73
2022/04/27 13:22:12;;;;;;;9.48;7.10;;;;;;;;;;5030463;28;20437;-72
2022/04/27 13:24:40;;;;;;;8.38;7.57;;;;;;;;;;5027231;28;20212;-73
2022/04/27 13:27:24;;;;;;;8.23;7.45;;;;;;;;;;5031781;28;20242;-73
2022/04/27 13:29:53;;;;;;;7.82;6.97;;;;;;;;;;5032430;28;20224;-73
2022/04/27 13:32:23;;;;;;;7.60;6.90;;;;;;;;;;5032272;28;20206;-73
2022/04/27 13:34:52;;;;;;;7.55;6.80;;;;;;;;;;5025534;28;20208;-73
2022/04/27 13:37:24;;;;;;;9.38;7.20;;;;;;;;;;5025042;28;20227;-73
2022/04/27 13:39:56;;;;;;;10.10;7.15;;;;;;;;;;5031466;28;20286;-73
2022/04/27 13:42:26;;;;;;;7.78;7.07;;;;;;;;;;5027510;28;20220;-73
2022/04/27 13:44:55;;;;;;;7.90;6.85;;;;;;;;;;5031820;28;20684;-73
2022/04/27 13:47:26;;;;;;;10.27;7.13;;;;;;;;;;5031290;28;20262;-73
2022/04/27 13:49:54;;;;;;;7.93;7.22;;;;;;;;;;5031890;28;20601;-73
2022/04/27 13:52:43;;;;;;;7.80;7.05;;;;;;;;;;5028097;28;20289;-74
2022/04/27 13:55:12;;;;;;;8.20;6.85;;;;;;;;;;5016509;28;20209;-73
2022/04/27 13:57:42;;;;;;;8.95;6.65;;;;;;;;;;5030568;28;20277;-73
2022/04/27 14:00:10;;;;;;;8.27;7.35;;;;;;;;;;5028644;28;20227;-73
2022/04/27 14:02:40;;;;;;;8.13;6.80;;;;;;;;;;5031005;28;20291;-73
2022/04/27 14:05:10;;;;;;;8.25;6.95;;;;;;;;;;5030275;28;20223;-73
2022/04/27 14:07:42;;;;;;;7.38;6.68;;;;;;;;;;5026549;28;20231;-72
2022/04/27 14:10:12;;;;;;;7.47;6.80;;;;;;;;;;5027943;28;20227;-74
2022/04/27 14:15:31;;;;;;;7.47;6.68;;;;;;;;;;5027508;28;20208;-74
2022/04/27 14:18:14;;;;;;;7.60;6.90;;;;;;;;;;5035265;28;20693;-74
2022/04/27 14:20:43;;;;;;;6.95;6.22;;;;;;;;;;5033774;28;20253;-73
2022/04/27 14:23:12;;;;;;;8.15;6.40;;;;;;;;;;5030747;28;20254;-74
2022/04/27 14:25:41;;;;;;;8.52;7.15;;;;;;;;;;5022911;28;20208;-73
2022/04/27 14:28:14;;;;;;;9.35;6.50;;;;;;;;;;5021395;28;20274;-72
2022/04/27 14:30:43;;;;;;;8.02;7.25;;;;;;;;;;5031815;28;20249;-74
2022/04/27 14:33:12;;;;;;;7.13;6.53;;;;;;;;;;5030907;28;20748;-72
2022/04/27 14:35:41;;;;;;;8.50;6.45;;;;;;;;;;5026793;28;20231;-71
2022/04/27 14:38:10;;;;;;;6.97;6.28;;;;;;;;;;5028873;28;20242;-73
2022/04/27 14:40:39;;;;;;;7.47;6.78;;;;;;;;;;5028060;28;20204;-72
2022/04/27 14:43:08;;;;;;;7.47;6.65;;;;;;;;;;5021086;28;20208;-73
2022/04/27 14:45:38;;;;;;;7.43;6.72;;;;;;;;;;5036339;28;20215;-73
2022/04/27 14:48:07;;;;;;;7.03;6.32;;;;;;;;;;5033023;28;20240;-73
2022/04/27 14:50:36;;;;;;;6.70;6.10;;;;;;;;;;5032734;28;20230;-73
2022/04/27 14:53:05;;;;;;;6.97;6.28;;;;;;;;;;5029790;28;20204;-74
2022/04/27 14:55:33;;;;;;;7.25;6.55;;;;;;;;;;5031975;28;20574;-73
2022/04/27 14:58:02;;;;;;;7.03;6.30;;;;;;;;;;5033342;28;20231;-73
2022/04/27 15:00:31;;;;;;;7.68;6.80;;;;;;;;;;5033448;28;20216;-73
2022/04/27 15:03:00;;;;;;;8.07;6.80;;;;;;;;;;5031588;28;20203;-72
2022/04/27 15:05:29;;;;;;;10.77;7.05;;;;;;;;;;5032621;28;20211;-73
2022/04/27 15:07:57;;;;;;;7.20;6.40;;;;;;;;;;5029410;28;20219;-73
2022/04/27 15:10:26;;;;;;;8.40;7.47;;;;;;;;;;5026515;28;20208;-73
2022/04/27 15:12:56;;;;;;;8.52;6.90;;;;;;;;;;5028730;28;20230;-73
2022/04/27 15:15:25;;;;;;;11.32;6.70;;;;;;;;;;5029739;28;20226;-73